createdAt,value
2018-09-25T00:01:01.466Z,16.10
2018-09-25T00:03:35.861Z,16.10
2018-09-25T00:06:10.174Z,16.10
2018-09-25T00:08:44.369Z,16.10
2018-09-25T00:11:18.569Z,16.10
2018-09-25T00:13:52.758Z,16.10
2018-09-25T00:16:27.010Z,16.10
2018-09-25T00:19:01.109Z,16.00
2018-09-25T00:21:35.294Z,16.00
2018-09-25T00:24:09.347Z,16.00
2018-09-25T00:26:43.574Z,16.00
2018-09-25T00:29:17.790Z,15.90
2018-09-25T00:31:52.048Z,16.00
2018-09-25T00:34:26.418Z,15.80
2018-09-25T00:37:00.576Z,15.90
2018-09-25T00:39:34.743Z,15.90
2018-09-25T00:42:09.009Z,15.90
2018-09-25T00:44:43.342Z,15.80
2018-09-25T00:47:17.502Z,15.80
2018-09-25T00:49:51.737Z,15.80
2018-09-25T00:52:25.890Z,15.80
2018-09-25T00:54:59.827Z,15.80
2018-09-25T00:57:34.004Z,15.80
2018-09-25T01:00:08.148Z,15.70
2018-09-25T01:02:42.480Z,15.70
2018-09-25T01:05:16.525Z,15.70
2018-09-25T01:07:50.705Z,15.70
2018-09-25T01:10:24.833Z,15.70
2018-09-25T01:12:59.013Z,15.70
2018-09-25T01:15:33.322Z,15.70
2018-09-25T01:18:07.378Z,15.70
2018-09-25T01:20:41.594Z,15.70
2018-09-25T01:23:15.646Z,15.70
2018-09-25T01:25:49.794Z,15.50
2018-09-25T01:28:24.142Z,15.60
2018-09-25T01:30:58.344Z,15.40
2018-09-25T01:33:32.504Z,15.50
2018-09-25T01:36:06.669Z,15.30
2018-09-25T01:38:40.789Z,15.40
2018-09-25T01:41:15.302Z,15.40
2018-09-25T01:43:49.638Z,15.30
2018-09-25T01:46:23.950Z,15.30
2018-09-25T01:48:58.185Z,15.40
2018-09-25T01:51:32.338Z,15.40
2018-09-25T01:54:06.661Z,15.40
2018-09-25T01:56:40.866Z,15.40
2018-09-25T01:59:15.121Z,15.40
2018-09-25T02:01:49.308Z,15.40
2018-09-25T02:04:23.639Z,15.40
2018-09-25T02:06:57.774Z,15.40
2018-09-25T02:09:32.092Z,15.30
2018-09-25T02:12:06.154Z,15.30
2018-09-25T02:14:40.351Z,15.00
2018-09-25T02:17:14.521Z,15.10
2018-09-25T02:19:48.750Z,15.20
2018-09-25T02:22:22.991Z,15.30
2018-09-25T02:24:57.141Z,15.20
2018-09-25T02:27:31.383Z,15.20
2018-09-25T02:30:05.521Z,15.20
2018-09-25T02:32:39.854Z,15.20
2018-09-25T02:35:14.010Z,15.00
2018-09-25T02:37:48.311Z,15.00
2018-09-25T02:40:22.330Z,15.10
2018-09-25T02:42:56.533Z,15.20
2018-09-25T02:45:30.690Z,15.20
2018-09-25T02:48:05.020Z,15.10
2018-09-25T02:50:39.150Z,15.20
2018-09-25T02:53:13.413Z,15.10
2018-09-25T02:55:47.588Z,15.10
2018-09-25T02:58:21.978Z,15.00
2018-09-25T03:00:55.911Z,15.10
2018-09-25T03:03:30.289Z,15.00
2018-09-25T03:06:04.565Z,14.90
2018-09-25T03:08:38.850Z,15.00
2018-09-25T03:11:13.109Z,15.00
2018-09-25T03:13:47.069Z,15.00
2018-09-25T03:16:21.158Z,15.00
2018-09-25T03:18:55.257Z,15.00
2018-09-25T03:21:29.359Z,15.00
2018-09-25T03:24:03.757Z,14.90
2018-09-25T03:26:37.922Z,14.90
2018-09-25T03:29:12.252Z,14.90
2018-09-25T03:31:46.351Z,14.90
2018-09-25T03:34:20.573Z,14.90
2018-09-25T03:36:54.609Z,14.90
2018-09-25T03:39:28.745Z,14.90
2018-09-25T03:42:02.934Z,14.80
2018-09-25T03:44:37.034Z,14.80
2018-09-25T03:47:11.223Z,14.80
2018-09-25T03:49:45.510Z,14.80
2018-09-25T03:52:19.878Z,14.70
2018-09-25T03:54:54.122Z,14.70
2018-09-25T03:57:28.031Z,14.70
2018-09-25T04:00:02.327Z,14.70
2018-09-25T04:02:36.488Z,14.70
2018-09-25T04:05:10.812Z,14.60
2018-09-25T04:07:45.002Z,14.60
2018-09-25T04:10:19.161Z,14.60
2018-09-25T04:12:53.329Z,14.60
2018-09-25T04:15:27.614Z,14.60
2018-09-25T04:18:01.806Z,14.60
2018-09-25T04:20:36.002Z,14.70
2018-09-25T04:23:10.052Z,14.60
2018-09-25T04:25:44.230Z,14.60
2018-09-25T04:28:18.330Z,14.60
2018-09-25T04:30:52.739Z,14.60
2018-09-25T04:33:26.801Z,14.60
2018-09-25T04:36:00.945Z,14.50
2018-09-25T04:38:34.982Z,14.50
2018-09-25T04:41:09.278Z,14.50
2018-09-25T04:43:43.230Z,14.50
2018-09-25T04:46:17.430Z,14.50
2018-09-25T04:48:51.697Z,14.60
2018-09-25T04:51:25.910Z,14.50
2018-09-25T04:54:00.111Z,14.50
2018-09-25T04:56:34.418Z,14.50
2018-09-25T04:59:08.898Z,14.50
2018-09-25T05:01:43.129Z,14.40
2018-09-25T05:04:17.430Z,14.30
2018-09-25T05:06:51.674Z,14.30
2018-09-25T05:09:26.005Z,14.40
2018-09-25T05:12:00.435Z,14.40
2018-09-25T05:14:34.472Z,14.40
2018-09-25T05:17:08.877Z,14.40
2018-09-25T05:19:42.895Z,14.40
2018-09-25T05:22:17.189Z,14.30
2018-09-25T05:24:51.310Z,14.30
2018-09-25T05:27:25.509Z,14.30
2018-09-25T05:29:59.544Z,14.20
2018-09-25T05:32:33.705Z,14.30
2018-09-25T05:35:07.846Z,14.30
2018-09-25T05:37:42.143Z,14.30
2018-09-25T05:40:16.251Z,14.30
2018-09-25T05:42:50.446Z,14.30
2018-09-25T05:45:24.630Z,13.70
2018-09-25T05:47:58.887Z,14.00
2018-09-25T05:50:33.294Z,14.10
2018-09-25T05:53:07.625Z,14.30
2018-09-25T05:55:41.700Z,14.40
2018-09-25T05:58:15.822Z,14.50
2018-09-25T06:00:49.878Z,14.80
2018-09-25T06:03:24.225Z,15.10
2018-09-25T06:05:58.461Z,15.00
2018-09-25T06:08:32.682Z,15.10
2018-09-25T06:11:06.779Z,15.50
2018-09-25T06:13:40.929Z,15.40
2018-09-25T06:16:15.129Z,15.50
2018-09-25T06:18:49.457Z,15.40
2018-09-25T06:21:23.586Z,15.70
2018-09-25T06:23:57.737Z,15.80
2018-09-25T06:26:31.822Z,16.40
2018-09-25T06:29:06.022Z,16.20
2018-09-25T06:31:40.079Z,15.70
2018-09-25T06:34:14.270Z,15.60
2018-09-25T06:36:48.414Z,15.10
2018-09-25T06:39:22.522Z,16.30
2018-09-25T06:41:56.734Z,17.00
2018-09-25T06:44:30.937Z,16.40
2018-09-25T06:47:05.186Z,16.30
2018-09-25T06:49:39.473Z,15.60
2018-09-25T06:52:13.713Z,14.90
2018-09-25T06:54:48.000Z,15.50
2018-09-25T06:57:22.186Z,13.80
2018-09-25T06:59:56.492Z,15.10
2018-09-25T07:02:30.675Z,15.90
2018-09-25T07:05:04.895Z,14.50
2018-09-25T07:07:39.039Z,14.60
2018-09-25T07:10:13.457Z,14.60
2018-09-25T07:12:47.470Z,15.30
2018-09-25T07:15:21.614Z,16.60
2018-09-25T07:17:55.655Z,15.10
2018-09-25T07:20:29.721Z,16.20
2018-09-25T07:23:03.802Z,15.80
2018-09-25T07:25:38.191Z,16.20
2018-09-25T07:28:12.334Z,17.10
2018-09-25T07:30:46.497Z,17.20
2018-09-25T07:33:20.781Z,18.00
2018-09-25T07:35:54.899Z,17.30
2018-09-25T07:38:29.186Z,17.70
2018-09-25T07:41:03.566Z,18.30
2018-09-25T07:43:37.677Z,16.40
2018-09-25T07:46:11.958Z,15.80
2018-09-25T07:48:46.249Z,16.40
2018-09-25T07:51:20.240Z,15.50
2018-09-25T07:53:54.560Z,15.90
2018-09-25T07:56:28.502Z,15.50
2018-09-25T07:59:02.797Z,14.80
2018-09-25T08:01:36.817Z,16.40
2018-09-25T08:04:11.278Z,15.70
2018-09-25T08:06:45.330Z,15.40
2018-09-25T08:09:19.549Z,16.10
2018-09-25T08:11:53.834Z,16.30
2018-09-25T08:14:28.084Z,15.50
2018-09-25T08:17:02.202Z,16.50
2018-09-25T08:19:36.581Z,16.10
2018-09-25T08:22:10.806Z,15.50
2018-09-25T08:24:45.274Z,15.60
2018-09-25T08:27:19.634Z,14.50
2018-09-25T08:29:54.004Z,15.50
2018-09-25T08:32:27.942Z,16.90
2018-09-25T08:35:02.317Z,16.50
2018-09-25T08:37:36.268Z,16.10
2018-09-25T08:40:10.410Z,16.90
2018-09-25T08:42:44.437Z,15.30
2018-09-25T08:45:18.626Z,15.70
2018-09-25T08:47:52.736Z,15.30
2018-09-25T08:50:27.018Z,16.60
2018-09-25T08:53:01.042Z,16.80
2018-09-25T08:55:35.354Z,16.40
2018-09-25T08:58:09.577Z,17.10
2018-09-25T09:00:43.659Z,17.20
2018-09-25T09:03:17.914Z,17.60
2018-09-25T09:05:52.114Z,18.00
2018-09-25T09:08:26.091Z,16.70
2018-09-25T09:11:00.297Z,17.20
2018-09-25T09:13:34.264Z,16.70
2018-09-25T09:16:08.445Z,16.70
2018-09-25T09:18:42.598Z,16.80
2018-09-25T09:21:16.926Z,17.80
2018-09-25T09:23:51.186Z,17.40
2018-09-25T09:26:25.347Z,17.20
2018-09-25T09:28:59.426Z,16.00
2018-09-25T09:31:33.786Z,16.70
2018-09-25T09:34:07.913Z,17.20
2018-09-25T09:36:42.053Z,17.20
2018-09-25T09:39:16.116Z,16.40
2018-09-25T09:41:50.689Z,16.50
2018-09-25T09:44:24.574Z,16.40
2018-09-25T09:46:58.843Z,16.40
2018-09-25T09:49:32.957Z,17.60
2018-09-25T09:52:07.109Z,18.20
2018-09-25T09:54:41.358Z,18.00
2018-09-25T09:57:15.597Z,17.90
2018-09-25T09:59:49.860Z,18.40
2018-09-25T10:02:24.062Z,17.60
2018-09-25T10:04:58.131Z,17.00
2018-09-25T10:07:32.235Z,16.70
2018-09-25T10:10:06.182Z,16.80
2018-09-25T10:12:40.426Z,18.00
2018-09-25T10:15:14.848Z,17.40
2018-09-25T10:17:49.022Z,17.40
2018-09-25T10:20:22.875Z,17.10
2018-09-25T10:22:56.929Z,17.00
2018-09-25T10:25:31.136Z,17.20
2018-09-25T10:28:05.439Z,17.80
2018-09-25T10:30:39.473Z,17.40
2018-09-25T10:33:13.797Z,17.40
2018-09-25T10:35:47.952Z,17.90
2018-09-25T10:38:22.145Z,16.70
2018-09-25T10:40:56.329Z,16.50
2018-09-25T10:43:30.520Z,16.80
2018-09-25T10:46:04.609Z,17.10
2018-09-25T10:48:38.660Z,17.80
2018-09-25T10:51:12.898Z,17.80
2018-09-25T10:53:47.112Z,18.00
2018-09-25T10:56:21.374Z,18.40
2018-09-25T10:58:55.590Z,18.40
2018-09-25T11:01:29.841Z,18.50
2018-09-25T11:04:03.901Z,17.30
2018-09-25T11:06:38.233Z,17.40
2018-09-25T11:09:14.058Z,16.80
2018-09-25T11:11:48.786Z,16.40
2018-09-25T11:14:23.207Z,16.50
2018-09-25T11:16:57.435Z,15.90
2018-09-25T11:19:31.590Z,16.50
2018-09-25T11:22:05.841Z,16.10
2018-09-25T11:24:39.909Z,16.20
2018-09-25T11:27:14.129Z,16.60
2018-09-25T11:29:48.305Z,16.40
2018-09-25T11:32:22.522Z,16.20
2018-09-25T11:34:56.832Z,16.20
2018-09-25T11:37:31.103Z,16.50
2018-09-25T11:40:05.234Z,16.10
2018-09-25T11:42:39.369Z,16.50
2018-09-25T11:45:13.770Z,16.50
2018-09-25T11:47:47.933Z,17.10
2018-09-25T11:50:21.958Z,16.70
2018-09-25T11:52:56.276Z,17.60
2018-09-25T11:55:30.378Z,17.60
2018-09-25T11:58:04.524Z,17.40
2018-09-25T12:00:38.590Z,17.50
2018-09-25T12:03:12.879Z,17.60
2018-09-25T12:05:47.172Z,17.70
2018-09-25T12:08:21.482Z,17.30
2018-09-25T12:10:55.750Z,17.00
2018-09-25T12:13:30.094Z,17.20
2018-09-25T12:16:04.618Z,17.80
2018-09-25T12:18:38.588Z,17.90
2018-09-25T12:21:12.950Z,17.60
2018-09-25T12:23:47.100Z,17.30
2018-09-25T12:26:21.461Z,17.90
2018-09-25T12:28:55.790Z,17.60
2018-09-25T12:31:29.914Z,17.50
2018-09-25T12:34:04.162Z,17.50
2018-09-25T12:36:38.253Z,17.00
2018-09-25T12:39:13.694Z,17.50
2018-09-25T12:41:47.893Z,18.00
2018-09-25T12:44:21.945Z,17.40
2018-09-25T12:46:56.410Z,17.00
2018-09-25T12:49:30.458Z,16.70
2018-09-25T12:52:04.607Z,16.00
2018-09-25T12:54:38.673Z,15.80
2018-09-25T12:57:12.773Z,16.80
2018-09-25T12:59:46.837Z,16.60
2018-09-25T13:02:20.854Z,16.60
2018-09-25T13:04:55.270Z,15.90
2018-09-25T13:07:29.646Z,16.00
2018-09-25T13:10:03.926Z,15.60
2018-09-25T13:12:38.062Z,16.40
2018-09-25T13:15:12.142Z,17.10
2018-09-25T13:17:46.493Z,16.90
2018-09-25T13:20:20.722Z,16.40
2018-09-25T13:22:54.781Z,16.10
2018-09-25T13:25:28.837Z,16.00
2018-09-25T13:28:03.240Z,16.70
2018-09-25T13:30:37.349Z,16.40
2018-09-25T13:33:11.645Z,16.70
2018-09-25T13:35:46.012Z,16.20
2018-09-25T13:38:20.150Z,16.20
2018-09-25T13:40:54.137Z,16.70
2018-09-25T13:43:28.201Z,16.40
2018-09-25T13:46:02.340Z,17.40
2018-09-25T13:48:36.332Z,18.00
2018-09-25T13:51:10.586Z,18.00
2018-09-25T13:53:44.619Z,18.40
2018-09-25T13:56:18.889Z,18.30
2018-09-25T13:58:53.128Z,18.00
2018-09-25T14:01:27.461Z,18.50
2018-09-25T14:04:01.603Z,18.40
2018-09-25T14:06:35.873Z,17.60
2018-09-25T14:09:12.221Z,17.40
2018-09-25T14:11:46.251Z,17.20
2018-09-25T14:14:20.467Z,16.60
2018-09-25T14:16:54.685Z,16.40
2018-09-25T14:19:29.006Z,16.90
2018-09-25T14:22:03.417Z,17.10
2018-09-25T14:24:37.682Z,17.20
2018-09-25T14:27:12.007Z,17.00
2018-09-25T14:29:46.090Z,17.00
2018-09-25T14:32:20.374Z,16.40
2018-09-25T14:34:54.639Z,16.60
2018-09-25T14:37:28.951Z,17.00
2018-09-25T14:40:03.216Z,17.10
2018-09-25T14:42:37.766Z,16.70
2018-09-25T14:45:12.086Z,16.80
2018-09-25T14:47:46.273Z,17.10
2018-09-25T14:50:20.657Z,16.30
2018-09-25T14:52:54.914Z,16.70
2018-09-25T14:55:29.134Z,17.50
2018-09-25T14:58:03.338Z,17.90
2018-09-25T15:00:37.414Z,17.20
2018-09-25T15:03:11.394Z,17.10
2018-09-25T15:05:45.676Z,17.60
2018-09-25T15:08:19.866Z,17.80
2018-09-25T15:10:54.013Z,17.50
2018-09-25T15:13:28.176Z,17.00
2018-09-25T15:16:02.253Z,17.00
2018-09-25T15:18:36.206Z,17.40
2018-09-25T15:21:10.590Z,17.90
2018-09-25T15:23:44.725Z,17.50
2018-09-25T15:26:19.117Z,17.10
2018-09-25T15:28:53.433Z,17.00
2018-09-25T15:31:27.424Z,17.00
2018-09-25T15:34:01.724Z,16.90
2018-09-25T15:36:35.965Z,17.30
2018-09-25T15:39:11.886Z,17.10
2018-09-25T15:41:46.241Z,17.60
2018-09-25T15:44:20.651Z,17.80
2018-09-25T15:46:54.654Z,18.30
2018-09-25T15:49:28.630Z,18.30
2018-09-25T15:52:02.756Z,18.30
2018-09-25T15:54:43.975Z,18.50
2018-09-25T15:57:18.266Z,17.40
2018-09-25T15:59:52.425Z,17.10
2018-09-25T16:02:26.661Z,16.30
2018-09-25T16:05:01.037Z,17.00
2018-09-25T16:07:35.312Z,17.00
2018-09-25T16:10:09.546Z,17.40
2018-09-25T16:12:43.777Z,17.30
2018-09-25T16:15:17.750Z,16.40
2018-09-25T16:17:51.937Z,16.80
2018-09-25T16:20:26.162Z,17.40
2018-09-25T16:23:00.171Z,17.60
2018-09-25T16:25:34.209Z,17.50
2018-09-25T16:28:08.470Z,16.50
2018-09-25T16:30:42.754Z,16.40
2018-09-25T16:33:17.055Z,16.40
2018-09-25T16:35:51.314Z,16.40
2018-09-25T16:38:25.562Z,16.80
2018-09-25T16:40:59.692Z,17.50
2018-09-25T16:43:33.810Z,17.90
2018-09-25T16:46:07.895Z,18.10
2018-09-25T16:48:42.134Z,17.60
2018-09-25T16:51:16.325Z,17.80
2018-09-25T16:53:50.735Z,17.70
2018-09-25T16:56:25.130Z,17.90
2018-09-25T16:58:59.482Z,18.00
2018-09-25T17:01:33.706Z,18.10
2018-09-25T17:04:07.996Z,18.20
2018-09-25T17:06:42.401Z,18.10
2018-09-25T17:09:16.658Z,18.20
2018-09-25T17:11:50.884Z,18.20
2018-09-25T17:14:25.115Z,18.20
2018-09-25T17:16:59.430Z,18.20
2018-09-25T17:19:33.678Z,18.10
2018-09-25T17:22:07.905Z,18.10
2018-09-25T17:24:42.297Z,18.10
2018-09-25T17:27:16.405Z,18.00
2018-09-25T17:29:50.666Z,18.10
2018-09-25T17:32:24.805Z,18.10
2018-09-25T17:34:59.162Z,18.00
2018-09-25T17:37:33.358Z,18.00
2018-09-25T17:40:07.460Z,18.00
2018-09-25T17:42:41.794Z,18.00
2018-09-25T17:45:15.870Z,18.00
2018-09-25T17:47:50.270Z,17.90
2018-09-25T17:50:24.356Z,17.90
2018-09-25T17:52:58.610Z,17.90
2018-09-25T17:55:32.997Z,17.90
2018-09-25T17:58:07.110Z,17.80
2018-09-25T18:00:41.382Z,17.80
2018-09-25T18:03:15.461Z,17.70
2018-09-25T18:05:49.668Z,17.70
2018-09-25T18:08:24.176Z,17.80
2018-09-25T18:10:58.245Z,17.80
2018-09-25T18:13:32.382Z,17.70
2018-09-25T18:16:06.630Z,17.80
2018-09-25T18:18:40.857Z,17.80
2018-09-25T18:21:15.179Z,17.70
2018-09-25T18:23:49.619Z,17.70
2018-09-25T18:26:23.954Z,17.70
2018-09-25T18:28:58.199Z,17.70
2018-09-25T18:31:32.471Z,17.70
2018-09-25T18:34:06.739Z,17.70
2018-09-25T18:36:41.076Z,17.60
2018-09-25T18:39:15.162Z,17.70
2018-09-25T18:41:49.427Z,17.70
2018-09-25T18:44:23.718Z,17.70
2018-09-25T18:46:58.049Z,17.70
2018-09-25T18:49:32.314Z,17.60
2018-09-25T18:52:06.495Z,17.60
2018-09-25T18:54:40.714Z,17.70
2018-09-25T18:57:15.000Z,17.70
2018-09-25T18:59:49.033Z,17.70
2018-09-25T19:02:23.314Z,17.60
2018-09-25T19:04:57.580Z,17.60
2018-09-25T19:07:31.590Z,17.60
2018-09-25T19:10:05.769Z,17.50
2018-09-25T19:12:40.014Z,17.50
2018-09-25T19:15:14.320Z,17.50
2018-09-25T19:17:48.471Z,17.50
2018-09-25T19:20:22.740Z,17.50
2018-09-25T19:22:56.898Z,17.50
2018-09-25T19:25:31.219Z,17.50
2018-09-25T19:28:05.518Z,17.40
2018-09-25T19:30:39.738Z,17.40
2018-09-25T19:33:13.845Z,17.40
2018-09-25T19:35:48.066Z,17.40
2018-09-25T19:38:22.246Z,17.30
2018-09-25T19:40:56.409Z,17.30
2018-09-25T19:43:30.494Z,17.30
2018-09-25T19:46:04.978Z,17.30
2018-09-25T19:48:39.162Z,17.30
2018-09-25T19:51:13.410Z,17.30
2018-09-25T19:53:47.892Z,17.30
2018-09-25T19:56:22.387Z,17.30
2018-09-25T19:58:56.569Z,17.30
2018-09-25T20:01:30.776Z,17.30
2018-09-25T20:04:04.900Z,17.20
2018-09-25T20:06:39.086Z,17.10
2018-09-25T20:09:14.596Z,17.10
2018-09-25T20:11:48.773Z,17.20
2018-09-25T20:14:23.055Z,17.10
2018-09-25T20:16:57.247Z,17.10
2018-09-25T20:19:31.772Z,17.10
2018-09-25T20:22:05.767Z,17.10
2018-09-25T20:24:39.964Z,17.10
2018-09-25T20:27:14.046Z,17.10
2018-09-25T20:29:48.387Z,17.10
2018-09-25T20:32:22.616Z,17.00
2018-09-25T20:34:56.677Z,17.00
2018-09-25T20:37:31.060Z,17.00
2018-09-25T20:40:05.449Z,17.00
2018-09-25T20:42:39.613Z,17.00
2018-09-25T20:45:14.071Z,17.00
2018-09-25T20:47:48.394Z,16.90
2018-09-25T20:50:22.594Z,16.90
2018-09-25T20:52:56.834Z,16.90
2018-09-25T20:55:31.156Z,16.70
2018-09-25T20:58:05.169Z,16.80
2018-09-25T21:00:39.390Z,16.70
2018-09-25T21:03:13.697Z,15.60
2018-09-25T21:05:47.849Z,15.00
2018-09-25T21:08:22.150Z,15.50
2018-09-25T21:10:56.132Z,16.20
2018-09-25T21:13:30.462Z,16.60
2018-09-25T21:16:04.410Z,16.70
2018-09-25T21:18:38.575Z,16.80
2018-09-25T21:21:12.829Z,16.80
2018-09-25T21:23:47.030Z,16.60
2018-09-25T21:26:21.281Z,16.70
2018-09-25T21:28:55.407Z,16.60
2018-09-25T21:31:29.749Z,16.50
2018-09-25T21:34:03.800Z,16.50
2018-09-25T21:36:38.018Z,16.60
2018-09-25T21:39:14.658Z,16.50
2018-09-25T21:41:49.121Z,16.30
2018-09-25T21:44:23.173Z,16.40
2018-09-25T21:46:57.414Z,15.80
2018-09-25T21:49:31.596Z,15.80
2018-09-25T21:52:05.716Z,15.90
2018-09-25T21:54:39.791Z,15.90
2018-09-25T21:57:14.384Z,16.20
2018-09-25T21:59:48.347Z,15.90
2018-09-25T22:02:22.442Z,15.90
2018-09-25T22:04:56.774Z,16.20
2018-09-25T22:07:31.125Z,16.30
2018-09-25T22:10:05.465Z,16.10
2018-09-25T22:12:39.885Z,16.40
2018-09-25T22:15:14.130Z,16.40
2018-09-25T22:17:48.331Z,16.40
2018-09-25T22:20:22.487Z,16.40
2018-09-25T22:22:56.592Z,16.40
2018-09-25T22:25:30.618Z,16.40
2018-09-25T22:28:04.803Z,16.40
2018-09-25T22:30:39.079Z,16.40
2018-09-25T22:33:13.185Z,16.30
2018-09-25T22:35:47.310Z,16.30
2018-09-25T22:38:21.498Z,16.30
2018-09-25T22:40:55.769Z,16.30
2018-09-25T22:43:29.766Z,16.30
2018-09-25T22:46:03.953Z,16.30
2018-09-25T22:48:38.192Z,16.30
2018-09-25T22:51:12.482Z,16.20
2018-09-25T22:53:46.583Z,16.20
2018-09-25T22:56:20.677Z,16.30
2018-09-25T22:58:54.626Z,16.30
2018-09-25T23:01:28.898Z,16.20
2018-09-25T23:04:03.143Z,16.20
2018-09-25T23:06:37.233Z,16.10
2018-09-25T23:09:13.522Z,16.10
2018-09-25T23:11:48.021Z,16.10
2018-09-25T23:14:22.239Z,16.10
2018-09-25T23:16:56.450Z,16.10
2018-09-25T23:19:30.669Z,16.10
2018-09-25T23:22:04.814Z,16.10
2018-09-25T23:24:39.245Z,16.00
2018-09-25T23:27:13.517Z,16.00
2018-09-25T23:29:47.758Z,16.00
2018-09-25T23:32:21.965Z,16.00
2018-09-25T23:34:56.222Z,16.00
2018-09-25T23:37:30.355Z,16.00
2018-09-25T23:40:04.405Z,16.00
2018-09-25T23:42:40.523Z,16.00
2018-09-25T23:47:19.758Z,16.00
2018-09-25T23:50:08.845Z,15.90
2018-09-25T23:52:41.617Z,15.90
2018-09-25T23:55:14.618Z,15.80
2018-09-25T23:57:48.900Z,15.80
